sensor_id;sensor_type;location;lat;lon;timestamp;temperature;humidity
37356;DHT22;48747;50.250;18.848;2023-07-22T00:00:09;17.50;99.90
37356;DHT22;48747;50.250;18.848;2023-07-22T00:02:14;17.50;99.90
37356;DHT22;48747;50.250;18.848;2023-07-22T00:04:17;17.50;99.90
37356;DHT22;48747;50.250;18.848;2023-07-22T00:06:20;17.60;99.90
37356;DHT22;48747;50.250;18.848;2023-07-22T00:08:23;17.60;99.90
37356;DHT22;48747;50.250;18.848;2023-07-22T00:10:26;17.60;99.90
37356;DHT22;48747;50.250;18.848;2023-07-22T00:12:29;17.60;99.90
37356;DHT22;48747;50.250;18.848;2023-07-22T00:14:33;17.60;99.90
37356;DHT22;48747;50.250;18.848;2023-07-22T00:16:36;17.60;99.90
37356;DHT22;48747;50.250;18.848;2023-07-22T00:18:39;17.60;99.90
37356;DHT22;48747;50.250;18.848;2023-07-22T00:20:43;17.60;99.90
37356;DHT22;48747;50.250;18.848;2023-07-22T00:22:46;17.60;99.90
37356;DHT22;48747;50.250;18.848;2023-07-22T00:24:49;17.60;99.90
37356;DHT22;48747;50.250;18.848;2023-07-22T00:26:52;17.60;99.90
37356;DHT22;48747;50.250;18.848;2023-07-22T00:28:56;17.60;99.90
37356;DHT22;48747;50.250;18.848;2023-07-22T00:30:59;17.50;99.90
37356;DHT22;48747;50.250;18.848;2023-07-22T00:33:05;17.60;99.90
37356;DHT22;48747;50.250;18.848;2023-07-22T00:35:08;17.60;99.90
37356;DHT22;48747;50.250;18.848;2023-07-22T00:37:12;17.50;99.90
37356;DHT22;48747;50.250;18.848;2023-07-22T00:39:15;17.60;99.90
37356;DHT22;48747;50.250;18.848;2023-07-22T00:41:18;17.50;99.90
37356;DHT22;48747;50.250;18.848;2023-07-22T00:43:21;17.40;99.90
37356;DHT22;48747;50.250;18.848;2023-07-22T00:45:24;17.40;99.90
37356;DHT22;48747;50.250;18.848;2023-07-22T00:47:27;17.40;99.90
37356;DHT22;48747;50.250;18.848;2023-07-22T00:49:31;17.50;99.90
37356;DHT22;48747;50.250;18.848;2023-07-22T00:51:34;17.40;99.90
37356;DHT22;48747;50.250;18.848;2023-07-22T00:53:37;17.40;99.90
37356;DHT22;48747;50.250;18.848;2023-07-22T00:55:41;17.40;99.90
37356;DHT22;48747;50.250;18.848;2023-07-22T00:57:44;17.30;99.90
37356;DHT22;48747;50.250;18.848;2023-07-22T00:59:47;17.30;99.90
37356;DHT22;48747;50.250;18.848;2023-07-22T01:01:50;17.30;99.90
37356;DHT22;48747;50.250;18.848;2023-07-22T01:03:53;17.30;99.90
37356;DHT22;48747;50.250;18.848;2023-07-22T01:05:57;17.30;99.90
37356;DHT22;48747;50.250;18.848;2023-07-22T01:08:02;17.20;99.90
37356;DHT22;48747;50.250;18.848;2023-07-22T01:10:06;17.10;99.90
37356;DHT22;48747;50.250;18.848;2023-07-22T01:12:11;17.00;99.90
37356;DHT22;48747;50.250;18.848;2023-07-22T01:14:15;17.00;99.90
37356;DHT22;48747;50.250;18.848;2023-07-22T01:16:18;17.00;99.90
37356;DHT22;48747;50.250;18.848;2023-07-22T01:18:21;17.00;99.90
37356;DHT22;48747;50.250;18.848;2023-07-22T01:20:25;17.00;99.90
37356;DHT22;48747;50.250;18.848;2023-07-22T01:22:29;17.00;99.90
37356;DHT22;48747;50.250;18.848;2023-07-22T01:24:33;17.00;99.90
37356;DHT22;48747;50.250;18.848;2023-07-22T01:26:36;17.00;99.90
37356;DHT22;48747;50.250;18.848;2023-07-22T01:28:39;17.00;99.90
37356;DHT22;48747;50.250;18.848;2023-07-22T01:30:42;17.00;99.90
37356;DHT22;48747;50.250;18.848;2023-07-22T01:32:51;17.00;99.90
37356;DHT22;48747;50.250;18.848;2023-07-22T01:34:52;17.00;99.90
37356;DHT22;48747;50.250;18.848;2023-07-22T01:36:55;17.00;99.90
37356;DHT22;48747;50.250;18.848;2023-07-22T01:38:58;17.00;99.90
37356;DHT22;48747;50.250;18.848;2023-07-22T01:41:02;16.90;99.90
37356;DHT22;48747;50.250;18.848;2023-07-22T01:43:05;16.90;99.90
37356;DHT22;48747;50.250;18.848;2023-07-22T01:45:09;16.90;99.90
37356;DHT22;48747;50.250;18.848;2023-07-22T01:47:12;16.90;99.90
37356;DHT22;48747;50.250;18.848;2023-07-22T01:49:15;16.90;99.90
37356;DHT22;48747;50.250;18.848;2023-07-22T01:51:18;16.90;99.90
37356;DHT22;48747;50.250;18.848;2023-07-22T01:53:21;16.90;99.90
37356;DHT22;48747;50.250;18.848;2023-07-22T01:55:24;17.00;99.90
37356;DHT22;48747;50.250;18.848;2023-07-22T01:57:27;17.00;99.90
37356;DHT22;48747;50.250;18.848;2023-07-22T01:59:30;17.00;99.90
37356;DHT22;48747;50.250;18.848;2023-07-22T02:01:33;17.00;99.90
37356;DHT22;48747;50.250;18.848;2023-07-22T02:03:36;17.10;99.90
37356;DHT22;48747;50.250;18.848;2023-07-22T02:05:40;17.10;99.90
37356;DHT22;48747;50.250;18.848;2023-07-22T02:07:43;17.10;99.90
37356;DHT22;48747;50.250;18.848;2023-07-22T02:09:46;17.20;99.90
37356;DHT22;48747;50.250;18.848;2023-07-22T02:11:49;17.20;99.90
37356;DHT22;48747;50.250;18.848;2023-07-22T02:13:52;17.30;99.90
37356;DHT22;48747;50.250;18.848;2023-07-22T02:15:55;17.20;99.90
37356;DHT22;48747;50.250;18.848;2023-07-22T02:17:59;17.20;99.90
37356;DHT22;48747;50.250;18.848;2023-07-22T02:20:02;17.20;99.90
37356;DHT22;48747;50.250;18.848;2023-07-22T02:22:06;17.20;99.90
37356;DHT22;48747;50.250;18.848;2023-07-22T02:24:10;17.30;99.90
37356;DHT22;48747;50.250;18.848;2023-07-22T02:26:13;17.30;99.90
37356;DHT22;48747;50.250;18.848;2023-07-22T02:28:17;17.20;99.90
37356;DHT22;48747;50.250;18.848;2023-07-22T02:30:24;17.20;99.90
37356;DHT22;48747;50.250;18.848;2023-07-22T02:32:27;17.20;99.90
37356;DHT22;48747;50.250;18.848;2023-07-22T02:34:32;17.20;99.90
37356;DHT22;48747;50.250;18.848;2023-07-22T02:36:35;17.20;99.90
37356;DHT22;48747;50.250;18.848;2023-07-22T02:38:38;17.10;99.90
37356;DHT22;48747;50.250;18.848;2023-07-22T02:40:41;17.20;99.90
37356;DHT22;48747;50.250;18.848;2023-07-22T02:42:44;17.10;99.90
37356;DHT22;48747;50.250;18.848;2023-07-22T02:44:47;17.00;99.90
37356;DHT22;48747;50.250;18.848;2023-07-22T02:46:50;17.00;99.90
37356;DHT22;48747;50.250;18.848;2023-07-22T02:48:54;17.00;99.90
37356;DHT22;48747;50.250;18.848;2023-07-22T02:51:05;17.00;99.90
37356;DHT22;48747;50.250;18.848;2023-07-22T02:53:09;17.00;99.90
37356;DHT22;48747;50.250;18.848;2023-07-22T02:55:14;17.10;99.90
37356;DHT22;48747;50.250;18.848;2023-07-22T02:57:19;17.10;99.90
37356;DHT22;48747;50.250;18.848;2023-07-22T02:59:22;17.20;99.90
37356;DHT22;48747;50.250;18.848;2023-07-22T03:01:26;17.30;99.90
37356;DHT22;48747;50.250;18.848;2023-07-22T03:03:29;17.20;99.90
37356;DHT22;48747;50.250;18.848;2023-07-22T03:05:34;17.20;99.90
37356;DHT22;48747;50.250;18.848;2023-07-22T03:07:38;17.20;99.90
37356;DHT22;48747;50.250;18.848;2023-07-22T03:09:41;17.20;99.90
37356;DHT22;48747;50.250;18.848;2023-07-22T03:11:44;17.20;99.90
37356;DHT22;48747;50.250;18.848;2023-07-22T03:13:47;17.20;99.90
37356;DHT22;48747;50.250;18.848;2023-07-22T03:15:50;17.20;99.90
37356;DHT22;48747;50.250;18.848;2023-07-22T03:17:53;17.20;99.90
37356;DHT22;48747;50.250;18.848;2023-07-22T03:19:58;17.20;99.90
37356;DHT22;48747;50.250;18.848;2023-07-22T03:22:01;17.10;99.90
37356;DHT22;48747;50.250;18.848;2023-07-22T03:24:04;17.20;99.90
37356;DHT22;48747;50.250;18.848;2023-07-22T03:26:08;17.00;99.90
37356;DHT22;48747;50.250;18.848;2023-07-22T03:28:11;17.00;99.90
37356;DHT22;48747;50.250;18.848;2023-07-22T03:30:17;16.90;99.90
37356;DHT22;48747;50.250;18.848;2023-07-22T03:32:19;16.90;99.90
37356;DHT22;48747;50.250;18.848;2023-07-22T03:34:23;16.90;99.90
37356;DHT22;48747;50.250;18.848;2023-07-22T03:36:27;16.90;99.90
37356;DHT22;48747;50.250;18.848;2023-07-22T03:38:30;16.90;99.90
37356;DHT22;48747;50.250;18.848;2023-07-22T03:40:33;17.00;99.90
37356;DHT22;48747;50.250;18.848;2023-07-22T03:42:36;17.00;99.90
37356;DHT22;48747;50.250;18.848;2023-07-22T03:44:39;17.00;99.90
37356;DHT22;48747;50.250;18.848;2023-07-22T03:46:42;17.00;99.90
37356;DHT22;48747;50.250;18.848;2023-07-22T03:48:45;17.00;99.90
37356;DHT22;48747;50.250;18.848;2023-07-22T03:50:48;17.00;99.90
37356;DHT22;48747;50.250;18.848;2023-07-22T03:52:52;17.10;99.90
37356;DHT22;48747;50.250;18.848;2023-07-22T03:54:55;17.00;99.90
37356;DHT22;48747;50.250;18.848;2023-07-22T03:56:58;17.00;99.90
37356;DHT22;48747;50.250;18.848;2023-07-22T03:59:01;17.10;99.90
37356;DHT22;48747;50.250;18.848;2023-07-22T04:01:04;17.00;99.90
37356;DHT22;48747;50.250;18.848;2023-07-22T04:03:07;16.90;99.90
37356;DHT22;48747;50.250;18.848;2023-07-22T04:05:11;16.80;99.90
37356;DHT22;48747;50.250;18.848;2023-07-22T04:07:14;16.90;99.90
37356;DHT22;48747;50.250;18.848;2023-07-22T04:09:17;16.90;99.90
37356;DHT22;48747;50.250;18.848;2023-07-22T04:11:20;16.90;99.90
37356;DHT22;48747;50.250;18.848;2023-07-22T04:13:25;16.90;99.90
37356;DHT22;48747;50.250;18.848;2023-07-22T04:15:28;17.00;99.90
37356;DHT22;48747;50.250;18.848;2023-07-22T04:17:32;17.00;99.90
37356;DHT22;48747;50.250;18.848;2023-07-22T04:19:35;17.10;99.90
37356;DHT22;48747;50.250;18.848;2023-07-22T04:21:38;17.20;99.90
37356;DHT22;48747;50.250;18.848;2023-07-22T04:23:41;17.20;99.90
37356;DHT22;48747;50.250;18.848;2023-07-22T04:25:45;17.30;99.90
37356;DHT22;48747;50.250;18.848;2023-07-22T04:27:48;17.30;99.90
37356;DHT22;48747;50.250;18.848;2023-07-22T04:29:51;17.30;99.90
37356;DHT22;48747;50.250;18.848;2023-07-22T04:31:58;17.30;99.90
37356;DHT22;48747;50.250;18.848;2023-07-22T04:34:01;17.30;99.90
37356;DHT22;48747;50.250;18.848;2023-07-22T04:36:04;17.20;99.90
37356;DHT22;48747;50.250;18.848;2023-07-22T04:38:08;17.20;99.90
37356;DHT22;48747;50.250;18.848;2023-07-22T04:40:12;17.20;99.90
37356;DHT22;48747;50.250;18.848;2023-07-22T04:42:19;17.10;99.90
37356;DHT22;48747;50.250;18.848;2023-07-22T04:44:22;17.10;99.90
37356;DHT22;48747;50.250;18.848;2023-07-22T04:46:26;17.10;99.90
37356;DHT22;48747;50.250;18.848;2023-07-22T04:48:30;17.00;99.90
37356;DHT22;48747;50.250;18.848;2023-07-22T04:50:33;17.00;99.90
37356;DHT22;48747;50.250;18.848;2023-07-22T04:52:37;17.00;99.90
37356;DHT22;48747;50.250;18.848;2023-07-22T04:54:41;17.00;99.90
37356;DHT22;48747;50.250;18.848;2023-07-22T04:56:44;17.10;99.90
37356;DHT22;48747;50.250;18.848;2023-07-22T04:58:47;17.10;99.90
37356;DHT22;48747;50.250;18.848;2023-07-22T05:00:51;17.10;99.90
37356;DHT22;48747;50.250;18.848;2023-07-22T05:02:54;17.20;99.90
37356;DHT22;48747;50.250;18.848;2023-07-22T05:04:58;17.30;99.90
37356;DHT22;48747;50.250;18.848;2023-07-22T05:07:01;17.30;99.90
37356;DHT22;48747;50.250;18.848;2023-07-22T05:09:04;17.30;99.90
37356;DHT22;48747;50.250;18.848;2023-07-22T05:11:07;17.40;99.90
37356;DHT22;48747;50.250;18.848;2023-07-22T05:13:10;17.40;99.90
37356;DHT22;48747;50.250;18.848;2023-07-22T05:15:13;17.40;99.90
37356;DHT22;48747;50.250;18.848;2023-07-22T05:17:17;17.40;99.90
37356;DHT22;48747;50.250;18.848;2023-07-22T05:19:20;17.30;99.90
37356;DHT22;48747;50.250;18.848;2023-07-22T05:21:23;17.20;99.90
37356;DHT22;48747;50.250;18.848;2023-07-22T05:23:26;17.20;99.90
37356;DHT22;48747;50.250;18.848;2023-07-22T05:25:29;17.20;99.90
37356;DHT22;48747;50.250;18.848;2023-07-22T05:27:32;17.20;99.90
37356;DHT22;48747;50.250;18.848;2023-07-22T05:29:35;17.30;99.90
37356;DHT22;48747;50.250;18.848;2023-07-22T05:31:38;17.40;99.90
37356;DHT22;48747;50.250;18.848;2023-07-22T05:33:41;17.50;99.90
37356;DHT22;48747;50.250;18.848;2023-07-22T05:35:44;17.70;99.90
37356;DHT22;48747;50.250;18.848;2023-07-22T05:37:53;17.90;99.90
37356;DHT22;48747;50.250;18.848;2023-07-22T05:39:52;18.00;99.90
37356;DHT22;48747;50.250;18.848;2023-07-22T05:41:55;18.00;99.90
37356;DHT22;48747;50.250;18.848;2023-07-22T05:43:58;18.10;99.90
37356;DHT22;48747;50.250;18.848;2023-07-22T05:46:01;18.30;99.90
37356;DHT22;48747;50.250;18.848;2023-07-22T05:48:04;18.40;99.90
37356;DHT22;48747;50.250;18.848;2023-07-22T05:50:08;18.30;99.90
37356;DHT22;48747;50.250;18.848;2023-07-22T05:52:11;18.30;99.90
37356;DHT22;48747;50.250;18.848;2023-07-22T05:54:14;18.30;99.90
37356;DHT22;48747;50.250;18.848;2023-07-22T05:56:17;18.30;99.90
37356;DHT22;48747;50.250;18.848;2023-07-22T05:58:20;18.30;99.90
37356;DHT22;48747;50.250;18.848;2023-07-22T06:00:23;18.30;99.90
37356;DHT22;48747;50.250;18.848;2023-07-22T06:02:26;18.40;99.90
37356;DHT22;48747;50.250;18.848;2023-07-22T06:04:29;18.40;99.90
37356;DHT22;48747;50.250;18.848;2023-07-22T06:06:32;18.60;99.90
37356;DHT22;48747;50.250;18.848;2023-07-22T06:08:36;18.50;99.90
37356;DHT22;48747;50.250;18.848;2023-07-22T06:10:41;18.50;99.90
37356;DHT22;48747;50.250;18.848;2023-07-22T06:12:45;18.70;99.90
37356;DHT22;48747;50.250;18.848;2023-07-22T06:14:49;18.80;99.90
37356;DHT22;48747;50.250;18.848;2023-07-22T06:16:52;18.90;99.90
37356;DHT22;48747;50.250;18.848;2023-07-22T06:18:55;19.00;99.90
37356;DHT22;48747;50.250;18.848;2023-07-22T06:20:58;19.20;99.90
37356;DHT22;48747;50.250;18.848;2023-07-22T06:23:02;19.30;99.90
37356;DHT22;48747;50.250;18.848;2023-07-22T06:25:05;19.30;99.90
37356;DHT22;48747;50.250;18.848;2023-07-22T06:27:08;19.20;99.90
37356;DHT22;48747;50.250;18.848;2023-07-22T06:29:11;19.20;99.90
37356;DHT22;48747;50.250;18.848;2023-07-22T06:31:14;19.30;99.90
37356;DHT22;48747;50.250;18.848;2023-07-22T06:33:19;19.10;99.90
37356;DHT22;48747;50.250;18.848;2023-07-22T06:35:22;19.00;99.90
37356;DHT22;48747;50.250;18.848;2023-07-22T06:37:25;19.00;99.90
37356;DHT22;48747;50.250;18.848;2023-07-22T06:39:28;19.10;99.90
37356;DHT22;48747;50.250;18.848;2023-07-22T06:41:31;19.20;99.90
37356;DHT22;48747;50.250;18.848;2023-07-22T06:43:34;19.10;99.90
37356;DHT22;48747;50.250;18.848;2023-07-22T06:45:37;19.20;99.90
37356;DHT22;48747;50.250;18.848;2023-07-22T06:47:40;19.40;99.90
37356;DHT22;48747;50.250;18.848;2023-07-22T06:49:43;19.50;99.90
37356;DHT22;48747;50.250;18.848;2023-07-22T06:51:46;19.60;99.90
37356;DHT22;48747;50.250;18.848;2023-07-22T06:53:49;19.80;99.90
37356;DHT22;48747;50.250;18.848;2023-07-22T06:55:52;19.90;99.90
37356;DHT22;48747;50.250;18.848;2023-07-22T06:57:57;19.90;99.90
37356;DHT22;48747;50.250;18.848;2023-07-22T07:00:00;20.00;99.90
37356;DHT22;48747;50.250;18.848;2023-07-22T07:02:03;20.00;99.90
37356;DHT22;48747;50.250;18.848;2023-07-22T07:04:09;20.10;99.90
37356;DHT22;48747;50.250;18.848;2023-07-22T07:06:12;20.00;99.90
37356;DHT22;48747;50.250;18.848;2023-07-22T07:08:15;20.00;99.90
37356;DHT22;48747;50.250;18.848;2023-07-22T07:10:18;19.90;99.90
37356;DHT22;48747;50.250;18.848;2023-07-22T07:12:22;19.90;99.90
37356;DHT22;48747;50.250;18.848;2023-07-22T07:14:25;19.90;99.90
37356;DHT22;48747;50.250;18.848;2023-07-22T07:16:30;19.90;99.90
37356;DHT22;48747;50.250;18.848;2023-07-22T07:18:33;20.00;99.90
37356;DHT22;48747;50.250;18.848;2023-07-22T07:20:36;20.00;99.90
37356;DHT22;48747;50.250;18.848;2023-07-22T07:22:40;20.10;99.90
37356;DHT22;48747;50.250;18.848;2023-07-22T07:24:43;20.20;99.90
37356;DHT22;48747;50.250;18.848;2023-07-22T07:26:46;20.30;99.90
37356;DHT22;48747;50.250;18.848;2023-07-22T07:28:50;20.30;99.90
37356;DHT22;48747;50.250;18.848;2023-07-22T07:30:53;20.20;99.90
37356;DHT22;48747;50.250;18.848;2023-07-22T07:32:56;20.30;99.90
37356;DHT22;48747;50.250;18.848;2023-07-22T07:34:59;20.30;99.90
37356;DHT22;48747;50.250;18.848;2023-07-22T07:37:04;20.40;99.90
37356;DHT22;48747;50.250;18.848;2023-07-22T07:39:08;20.50;99.90
37356;DHT22;48747;50.250;18.848;2023-07-22T07:41:11;20.50;99.90
37356;DHT22;48747;50.250;18.848;2023-07-22T07:43:14;20.50;99.90
37356;DHT22;48747;50.250;18.848;2023-07-22T07:45:17;20.50;99.90
37356;DHT22;48747;50.250;18.848;2023-07-22T07:47:20;20.70;99.90
37356;DHT22;48747;50.250;18.848;2023-07-22T07:49:23;20.80;99.90
37356;DHT22;48747;50.250;18.848;2023-07-22T07:51:27;21.00;99.90
37356;DHT22;48747;50.250;18.848;2023-07-22T07:53:31;21.10;99.90
37356;DHT22;48747;50.250;18.848;2023-07-22T07:55:34;21.20;99.90
37356;DHT22;48747;50.250;18.848;2023-07-22T07:57:38;21.30;99.90
37356;DHT22;48747;50.250;18.848;2023-07-22T07:59:41;21.40;99.90
37356;DHT22;48747;50.250;18.848;2023-07-22T08:01:44;21.50;99.90
37356;DHT22;48747;50.250;18.848;2023-07-22T08:03:47;21.60;99.90
37356;DHT22;48747;50.250;18.848;2023-07-22T08:05:50;21.50;99.90
37356;DHT22;48747;50.250;18.848;2023-07-22T08:07:53;21.50;99.90
37356;DHT22;48747;50.250;18.848;2023-07-22T08:09:57;21.50;99.90
37356;DHT22;48747;50.250;18.848;2023-07-22T08:12:01;21.40;99.90
37356;DHT22;48747;50.250;18.848;2023-07-22T08:14:05;21.40;99.90
37356;DHT22;48747;50.250;18.848;2023-07-22T08:16:10;21.50;99.90
37356;DHT22;48747;50.250;18.848;2023-07-22T08:18:14;21.60;99.90
37356;DHT22;48747;50.250;18.848;2023-07-22T08:20:17;21.80;99.90
37356;DHT22;48747;50.250;18.848;2023-07-22T08:22:20;21.80;99.90
37356;DHT22;48747;50.250;18.848;2023-07-22T08:24:23;21.90;99.90
37356;DHT22;48747;50.250;18.848;2023-07-22T08:26:26;21.90;99.90
37356;DHT22;48747;50.250;18.848;2023-07-22T08:28:32;21.90;99.90
37356;DHT22;48747;50.250;18.848;2023-07-22T08:30:36;21.90;99.90
37356;DHT22;48747;50.250;18.848;2023-07-22T08:32:39;21.80;99.90
37356;DHT22;48747;50.250;18.848;2023-07-22T08:34:42;21.50;98.50
37356;DHT22;48747;50.250;18.848;2023-07-22T08:36:45;21.30;99.90
37356;DHT22;48747;50.250;18.848;2023-07-22T08:38:48;21.20;99.90
37356;DHT22;48747;50.250;18.848;2023-07-22T08:40:51;21.50;99.90
37356;DHT22;48747;50.250;18.848;2023-07-22T08:42:54;21.80;99.90
37356;DHT22;48747;50.250;18.848;2023-07-22T08:44:59;22.20;99.90
37356;DHT22;48747;50.250;18.848;2023-07-22T08:47:05;22.50;96.40
37356;DHT22;48747;50.250;18.848;2023-07-22T08:49:10;22.80;93.90
37356;DHT22;48747;50.250;18.848;2023-07-22T08:51:19;22.90;95.30
37356;DHT22;48747;50.250;18.848;2023-07-22T08:53:23;22.70;95.40
37356;DHT22;48747;50.250;18.848;2023-07-22T08:55:27;22.60;97.10
37356;DHT22;48747;50.250;18.848;2023-07-22T08:57:31;22.60;96.80
37356;DHT22;48747;50.250;18.848;2023-07-22T08:59:34;22.50;97.20
37356;DHT22;48747;50.250;18.848;2023-07-22T09:01:38;22.70;97.50
37356;DHT22;48747;50.250;18.848;2023-07-22T09:03:42;22.80;94.80
37356;DHT22;48747;50.250;18.848;2023-07-22T09:05:45;22.70;94.20
37356;DHT22;48747;50.250;18.848;2023-07-22T09:07:49;22.50;94.90
37356;DHT22;48747;50.250;18.848;2023-07-22T09:09:53;22.20;95.70
37356;DHT22;48747;50.250;18.848;2023-07-22T09:11:57;22.10;97.50
37356;DHT22;48747;50.250;18.848;2023-07-22T09:14:02;22.20;96.50
37356;DHT22;48747;50.250;18.848;2023-07-22T09:16:07;22.40;97.60
37356;DHT22;48747;50.250;18.848;2023-07-22T09:18:10;22.70;96.60
37356;DHT22;48747;50.250;18.848;2023-07-22T09:20:14;23.00;94.60
37356;DHT22;48747;50.250;18.848;2023-07-22T09:22:17;23.30;92.70
37356;DHT22;48747;50.250;18.848;2023-07-22T09:24:23;23.70;91.90
37356;DHT22;48747;50.250;18.848;2023-07-22T09:26:26;23.90;87.70
37356;DHT22;48747;50.250;18.848;2023-07-22T09:28:33;23.80;81.90
37356;DHT22;48747;50.250;18.848;2023-07-22T09:30:37;23.30;84.90
37356;DHT22;48747;50.250;18.848;2023-07-22T09:32:41;23.10;83.60
37356;DHT22;48747;50.250;18.848;2023-07-22T09:34:56;23.00;83.10
37356;DHT22;48747;50.250;18.848;2023-07-22T09:37:00;23.00;87.70
37356;DHT22;48747;50.250;18.848;2023-07-22T09:39:03;23.00;86.90
37356;DHT22;48747;50.250;18.848;2023-07-22T09:41:06;23.10;87.60
37356;DHT22;48747;50.250;18.848;2023-07-22T09:43:11;23.00;84.50
37356;DHT22;48747;50.250;18.848;2023-07-22T09:45:15;22.90;87.30
37356;DHT22;48747;50.250;18.848;2023-07-22T09:47:18;22.70;90.40
37356;DHT22;48747;50.250;18.848;2023-07-22T09:49:21;22.30;88.80
37356;DHT22;48747;50.250;18.848;2023-07-22T09:51:24;22.00;90.00
37356;DHT22;48747;50.250;18.848;2023-07-22T09:53:27;21.70;92.50
37356;DHT22;48747;50.250;18.848;2023-07-22T09:55:31;21.50;93.80
37356;DHT22;48747;50.250;18.848;2023-07-22T09:57:35;21.50;96.10
37356;DHT22;48747;50.250;18.848;2023-07-22T09:59:38;21.60;97.80
37356;DHT22;48747;50.250;18.848;2023-07-22T10:01:41;21.60;96.50
37356;DHT22;48747;50.250;18.848;2023-07-22T10:03:46;21.70;97.90
37356;DHT22;48747;50.250;18.848;2023-07-22T10:05:50;21.90;96.50
37356;DHT22;48747;50.250;18.848;2023-07-22T10:07:55;22.40;97.00
37356;DHT22;48747;50.250;18.848;2023-07-22T10:09:58;22.70;92.90
37356;DHT22;48747;50.250;18.848;2023-07-22T10:12:02;23.10;91.80
37356;DHT22;48747;50.250;18.848;2023-07-22T10:14:06;23.40;89.90
37356;DHT22;48747;50.250;18.848;2023-07-22T10:16:09;23.60;78.70
37356;DHT22;48747;50.250;18.848;2023-07-22T10:18:12;23.70;75.60
37356;DHT22;48747;50.250;18.848;2023-07-22T10:20:16;24.00;79.00
37356;DHT22;48747;50.250;18.848;2023-07-22T10:22:21;24.20;73.00
37356;DHT22;48747;50.250;18.848;2023-07-22T10:24:25;24.40;74.10
37356;DHT22;48747;50.250;18.848;2023-07-22T10:26:29;24.50;67.60
37356;DHT22;48747;50.250;18.848;2023-07-22T10:28:32;24.50;67.50
37356;DHT22;48747;50.250;18.848;2023-07-22T10:30:36;24.60;66.50
37356;DHT22;48747;50.250;18.848;2023-07-22T10:32:40;24.60;66.00
37356;DHT22;48747;50.250;18.848;2023-07-22T10:34:44;24.60;68.90
37356;DHT22;48747;50.250;18.848;2023-07-22T10:36:47;24.70;67.30
37356;DHT22;48747;50.250;18.848;2023-07-22T10:38:57;24.90;66.90
37356;DHT22;48747;50.250;18.848;2023-07-22T10:41:04;24.80;66.80
37356;DHT22;48747;50.250;18.848;2023-07-22T10:43:09;24.60;66.10
37356;DHT22;48747;50.250;18.848;2023-07-22T10:45:30;24.20;65.10
37356;DHT22;48747;50.250;18.848;2023-07-22T10:47:33;24.00;63.10
37356;DHT22;48747;50.250;18.848;2023-07-22T10:49:47;24.00;64.50
37356;DHT22;48747;50.250;18.848;2023-07-22T10:51:51;24.30;68.00
37356;DHT22;48747;50.250;18.848;2023-07-22T10:53:55;24.60;64.70
37356;DHT22;48747;50.250;18.848;2023-07-22T10:58:10;25.10;63.50
37356;DHT22;48747;50.250;18.848;2023-07-22T11:00:18;25.20;63.80
37356;DHT22;48747;50.250;18.848;2023-07-22T11:02:29;25.00;62.50
37356;DHT22;48747;50.250;18.848;2023-07-22T11:04:33;24.80;61.90
37356;DHT22;48747;50.250;18.848;2023-07-22T11:06:39;24.60;61.90
37356;DHT22;48747;50.250;18.848;2023-07-22T11:08:42;24.30;63.70
37356;DHT22;48747;50.250;18.848;2023-07-22T11:10:55;24.00;63.30
37356;DHT22;48747;50.250;18.848;2023-07-22T11:12:59;23.70;62.40
37356;DHT22;48747;50.250;18.848;2023-07-22T11:15:04;23.60;63.40
37356;DHT22;48747;50.250;18.848;2023-07-22T11:17:08;23.60;63.60
37356;DHT22;48747;50.250;18.848;2023-07-22T11:19:16;23.70;65.30
37356;DHT22;48747;50.250;18.848;2023-07-22T11:21:19;23.80;63.70
37356;DHT22;48747;50.250;18.848;2023-07-22T11:23:23;23.80;63.30
37356;DHT22;48747;50.250;18.848;2023-07-22T11:25:26;23.90;65.70
37356;DHT22;48747;50.250;18.848;2023-07-22T11:27:29;23.80;63.00
37356;DHT22;48747;50.250;18.848;2023-07-22T11:29:34;23.70;64.00
37356;DHT22;48747;50.250;18.848;2023-07-22T11:31:39;23.60;64.70
37356;DHT22;48747;50.250;18.848;2023-07-22T11:33:46;23.40;66.70
37356;DHT22;48747;50.250;18.848;2023-07-22T11:35:49;23.50;66.30
37356;DHT22;48747;50.250;18.848;2023-07-22T11:38:05;23.50;66.50
37356;DHT22;48747;50.250;18.848;2023-07-22T11:40:12;23.50;66.70
37356;DHT22;48747;50.250;18.848;2023-07-22T11:42:16;23.50;66.10
37356;DHT22;48747;50.250;18.848;2023-07-22T11:44:26;23.50;66.80
37356;DHT22;48747;50.250;18.848;2023-07-22T11:46:28;23.60;65.20
37356;DHT22;48747;50.250;18.848;2023-07-22T11:48:31;23.60;65.70
37356;DHT22;48747;50.250;18.848;2023-07-22T11:50:34;23.70;67.80
37356;DHT22;48747;50.250;18.848;2023-07-22T11:52:37;23.80;66.70
37356;DHT22;48747;50.250;18.848;2023-07-22T11:54:42;23.80;66.70
37356;DHT22;48747;50.250;18.848;2023-07-22T11:56:45;23.80;64.30
37356;DHT22;48747;50.250;18.848;2023-07-22T11:58:58;23.90;67.50
37356;DHT22;48747;50.250;18.848;2023-07-22T12:01:10;23.90;66.60
37356;DHT22;48747;50.250;18.848;2023-07-22T12:03:08;23.90;66.10
37356;DHT22;48747;50.250;18.848;2023-07-22T12:05:12;24.00;65.60
37356;DHT22;48747;50.250;18.848;2023-07-22T12:07:34;23.90;65.60
37356;DHT22;48747;50.250;18.848;2023-07-22T12:09:33;23.80;65.00
37356;DHT22;48747;50.250;18.848;2023-07-22T12:11:36;23.70;65.30
37356;DHT22;48747;50.250;18.848;2023-07-22T12:13:39;23.50;65.90
37356;DHT22;48747;50.250;18.848;2023-07-22T12:15:42;23.50;66.80
37356;DHT22;48747;50.250;18.848;2023-07-22T12:17:55;23.40;67.30
37356;DHT22;48747;50.250;18.848;2023-07-22T12:19:58;23.60;68.60
37356;DHT22;48747;50.250;18.848;2023-07-22T12:22:01;23.80;66.40
37356;DHT22;48747;50.250;18.848;2023-07-22T12:24:04;23.90;67.10
37356;DHT22;48747;50.250;18.848;2023-07-22T12:26:07;24.10;67.30
37356;DHT22;48747;50.250;18.848;2023-07-22T12:28:10;24.20;64.90
37356;DHT22;48747;50.250;18.848;2023-07-22T12:30:13;24.60;64.50
37356;DHT22;48747;50.250;18.848;2023-07-22T12:32:17;24.80;62.70
37356;DHT22;48747;50.250;18.848;2023-07-22T12:34:20;24.90;62.30
37356;DHT22;48747;50.250;18.848;2023-07-22T12:36:23;24.80;63.00
37356;DHT22;48747;50.250;18.848;2023-07-22T12:38:27;24.60;62.90
37356;DHT22;48747;50.250;18.848;2023-07-22T12:40:30;24.70;63.60
37356;DHT22;48747;50.250;18.848;2023-07-22T12:42:34;24.90;63.40
37356;DHT22;48747;50.250;18.848;2023-07-22T12:44:37;25.20;62.40
37356;DHT22;48747;50.250;18.848;2023-07-22T12:46:40;25.60;62.70
37356;DHT22;48747;50.250;18.848;2023-07-22T12:48:43;25.90;58.80
37356;DHT22;48747;50.250;18.848;2023-07-22T12:50:46;25.70;58.30